sensor_id;sensor_type;location;lat;lon;timestamp;P1;durP1;ratioP1;P2;durP2;ratioP2
66298;SDS011;53098;47.658;8.578;2023-04-15T00:00:02;4.30;;;1.10;;
66298;SDS011;53098;47.658;8.578;2023-04-15T00:02:27;3.45;;;1.27;;
66298;SDS011;53098;47.658;8.578;2023-04-15T00:04:52;7.07;;;1.40;;
66298;SDS011;53098;47.658;8.578;2023-04-15T00:07:17;5.90;;;1.40;;
66298;SDS011;53098;47.658;8.578;2023-04-15T00:09:43;8.13;;;1.77;;
66298;SDS011;53098;47.658;8.578;2023-04-15T00:12:08;3.53;;;0.90;;
66298;SDS011;53098;47.658;8.578;2023-04-15T00:14:33;8.17;;;1.77;;
66298;SDS011;53098;47.658;8.578;2023-04-15T00:16:59;5.15;;;1.40;;
66298;SDS011;53098;47.658;8.578;2023-04-15T00:19:24;3.97;;;1.70;;
66298;SDS011;53098;47.658;8.578;2023-04-15T00:21:49;7.93;;;1.37;;
66298;SDS011;53098;47.658;8.578;2023-04-15T00:24:15;6.10;;;1.27;;
66298;SDS011;53098;47.658;8.578;2023-04-15T00:26:40;7.50;;;2.17;;
66298;SDS011;53098;47.658;8.578;2023-04-15T00:29:05;4.83;;;1.33;;
66298;SDS011;53098;47.658;8.578;2023-04-15T00:31:31;5.27;;;1.20;;
66298;SDS011;53098;47.658;8.578;2023-04-15T00:33:56;2.20;;;0.80;;
66298;SDS011;53098;47.658;8.578;2023-04-15T00:36:21;2.73;;;1.00;;
66298;SDS011;53098;47.658;8.578;2023-04-15T00:38:47;5.20;;;1.23;;
66298;SDS011;53098;47.658;8.578;2023-04-15T00:41:12;3.55;;;0.95;;
66298;SDS011;53098;47.658;8.578;2023-04-15T00:43:37;5.73;;;1.30;;
66298;SDS011;53098;47.658;8.578;2023-04-15T00:46:03;6.20;;;1.10;;
66298;SDS011;53098;47.658;8.578;2023-04-15T00:48:29;4.43;;;1.20;;
66298;SDS011;53098;47.658;8.578;2023-04-15T00:50:54;5.40;;;1.13;;
66298;SDS011;53098;47.658;8.578;2023-04-15T00:53:19;5.23;;;1.23;;
66298;SDS011;53098;47.658;8.578;2023-04-15T00:55:44;5.67;;;1.00;;
66298;SDS011;53098;47.658;8.578;2023-04-15T00:58:10;4.50;;;1.47;;
66298;SDS011;53098;47.658;8.578;2023-04-15T01:00:35;2.87;;;0.90;;
66298;SDS011;53098;47.658;8.578;2023-04-15T01:03:01;5.30;;;1.10;;
66298;SDS011;53098;47.658;8.578;2023-04-15T01:05:26;4.45;;;1.00;;
66298;SDS011;53098;47.658;8.578;2023-04-15T01:07:52;5.82;;;0.95;;
66298;SDS011;53098;47.658;8.578;2023-04-15T01:10:17;3.57;;;1.30;;
66298;SDS011;53098;47.658;8.578;2023-04-15T01:12:42;4.27;;;1.10;;
66298;SDS011;53098;47.658;8.578;2023-04-15T01:15:08;5.57;;;1.10;;
66298;SDS011;53098;47.658;8.578;2023-04-15T01:17:33;3.50;;;1.00;;
66298;SDS011;53098;47.658;8.578;2023-04-15T01:19:59;6.25;;;1.30;;
66298;SDS011;53098;47.658;8.578;2023-04-15T01:22:24;3.10;;;1.07;;
66298;SDS011;53098;47.658;8.578;2023-04-15T01:24:53;4.70;;;1.35;;
66298;SDS011;53098;47.658;8.578;2023-04-15T01:27:19;5.63;;;1.13;;
66298;SDS011;53098;47.658;8.578;2023-04-15T01:29:44;6.50;;;1.03;;
66298;SDS011;53098;47.658;8.578;2023-04-15T01:32:09;3.90;;;1.00;;
66298;SDS011;53098;47.658;8.578;2023-04-15T01:34:35;4.80;;;1.10;;
66298;SDS011;53098;47.658;8.578;2023-04-15T01:37:00;4.07;;;1.03;;
66298;SDS011;53098;47.658;8.578;2023-04-15T01:39:25;4.10;;;1.10;;
66298;SDS011;53098;47.658;8.578;2023-04-15T01:41:50;7.30;;;1.87;;
66298;SDS011;53098;47.658;8.578;2023-04-15T01:44:16;7.57;;;1.33;;
66298;SDS011;53098;47.658;8.578;2023-04-15T01:46:41;4.87;;;1.20;;
66298;SDS011;53098;47.658;8.578;2023-04-15T01:49:06;3.95;;;1.20;;
66298;SDS011;53098;47.658;8.578;2023-04-15T01:51:32;6.50;;;1.43;;
66298;SDS011;53098;47.658;8.578;2023-04-15T01:53:57;5.03;;;1.30;;
66298;SDS011;53098;47.658;8.578;2023-04-15T01:56:22;2.30;;;1.00;;
66298;SDS011;53098;47.658;8.578;2023-04-15T01:58:48;6.60;;;1.23;;
66298;SDS011;53098;47.658;8.578;2023-04-15T02:01:13;6.23;;;1.27;;
66298;SDS011;53098;47.658;8.578;2023-04-15T02:03:38;6.73;;;1.17;;
66298;SDS011;53098;47.658;8.578;2023-04-15T02:06:03;2.87;;;0.83;;
66298;SDS011;53098;47.658;8.578;2023-04-15T02:08:29;6.07;;;1.20;;
66298;SDS011;53098;47.658;8.578;2023-04-15T02:10:54;6.53;;;1.58;;
66298;SDS011;53098;47.658;8.578;2023-04-15T02:13:19;5.27;;;1.17;;
66298;SDS011;53098;47.658;8.578;2023-04-15T02:15:48;6.07;;;1.40;;
66298;SDS011;53098;47.658;8.578;2023-04-15T02:18:14;3.80;;;1.25;;
66298;SDS011;53098;47.658;8.578;2023-04-15T02:20:39;5.40;;;1.20;;
66298;SDS011;53098;47.658;8.578;2023-04-15T02:23:05;3.53;;;1.20;;
66298;SDS011;53098;47.658;8.578;2023-04-15T02:25:30;4.17;;;1.27;;
66298;SDS011;53098;47.658;8.578;2023-04-15T02:27:56;6.50;;;1.00;;
66298;SDS011;53098;47.658;8.578;2023-04-15T02:30:21;5.63;;;1.60;;
66298;SDS011;53098;47.658;8.578;2023-04-15T02:32:47;7.80;;;1.90;;
66298;SDS011;53098;47.658;8.578;2023-04-15T02:35:12;5.88;;;1.48;;
66298;SDS011;53098;47.658;8.578;2023-04-15T02:37:37;5.43;;;1.70;;
66298;SDS011;53098;47.658;8.578;2023-04-15T02:40:03;4.13;;;1.13;;
66298;SDS011;53098;47.658;8.578;2023-04-15T02:42:28;5.53;;;1.20;;
66298;SDS011;53098;47.658;8.578;2023-04-15T02:44:53;2.83;;;0.90;;
66298;SDS011;53098;47.658;8.578;2023-04-15T02:47:19;3.23;;;1.17;;
66298;SDS011;53098;47.658;8.578;2023-04-15T02:49:44;3.90;;;1.20;;
66298;SDS011;53098;47.658;8.578;2023-04-15T02:52:09;4.63;;;1.40;;
66298;SDS011;53098;47.658;8.578;2023-04-15T02:54:35;5.73;;;1.27;;
66298;SDS011;53098;47.658;8.578;2023-04-15T02:57:00;4.55;;;1.20;;
66298;SDS011;53098;47.658;8.578;2023-04-15T02:59:25;5.73;;;1.30;;
66298;SDS011;53098;47.658;8.578;2023-04-15T03:01:50;5.53;;;1.10;;
66298;SDS011;53098;47.658;8.578;2023-04-15T03:04:16;3.40;;;1.27;;
66298;SDS011;53098;47.658;8.578;2023-04-15T03:06:41;4.70;;;1.17;;
66298;SDS011;53098;47.658;8.578;2023-04-15T03:09:06;5.18;;;1.13;;
66298;SDS011;53098;47.658;8.578;2023-04-15T03:11:32;4.00;;;1.10;;
66298;SDS011;53098;47.658;8.578;2023-04-15T03:13:57;3.83;;;1.53;;
66298;SDS011;53098;47.658;8.578;2023-04-15T03:16:22;3.47;;;1.20;;
66298;SDS011;53098;47.658;8.578;2023-04-15T03:18:47;6.88;;;1.30;;
66298;SDS011;53098;47.658;8.578;2023-04-15T03:21:13;3.63;;;1.40;;
66298;SDS011;53098;47.658;8.578;2023-04-15T03:23:38;7.73;;;1.20;;
66298;SDS011;53098;47.658;8.578;2023-04-15T03:26:03;3.37;;;1.10;;
66298;SDS011;53098;47.658;8.578;2023-04-15T03:28:29;3.63;;;1.27;;
66298;SDS011;53098;47.658;8.578;2023-04-15T03:30:54;3.50;;;1.15;;
66298;SDS011;53098;47.658;8.578;2023-04-15T03:33:20;5.30;;;1.20;;
66298;SDS011;53098;47.658;8.578;2023-04-15T03:35:45;5.07;;;1.20;;
66298;SDS011;53098;47.658;8.578;2023-04-15T03:38:10;4.67;;;1.57;;
66298;SDS011;53098;47.658;8.578;2023-04-15T03:40:39;4.60;;;1.20;;
66298;SDS011;53098;47.658;8.578;2023-04-15T03:43:05;4.95;;;1.25;;
66298;SDS011;53098;47.658;8.578;2023-04-15T03:45:30;4.57;;;1.08;;
66298;SDS011;53098;47.658;8.578;2023-04-15T03:47:56;6.20;;;1.40;;
66298;SDS011;53098;47.658;8.578;2023-04-15T03:50:21;4.43;;;1.53;;
66298;SDS011;53098;47.658;8.578;2023-04-15T03:52:46;4.17;;;1.20;;
66298;SDS011;53098;47.658;8.578;2023-04-15T03:55:11;3.40;;;1.20;;
66298;SDS011;53098;47.658;8.578;2023-04-15T03:57:37;5.50;;;1.30;;
66298;SDS011;53098;47.658;8.578;2023-04-15T04:00:05;4.27;;;1.10;;
66298;SDS011;53098;47.658;8.578;2023-04-15T04:02:31;2.25;;;1.15;;
66298;SDS011;53098;47.658;8.578;2023-04-15T04:04:57;2.72;;;1.05;;
66298;SDS011;53098;47.658;8.578;2023-04-15T04:07:23;5.00;;;1.55;;
66298;SDS011;53098;47.658;8.578;2023-04-15T04:09:48;6.38;;;1.20;;
66298;SDS011;53098;47.658;8.578;2023-04-15T04:12:13;2.87;;;1.50;;
66298;SDS011;53098;47.658;8.578;2023-04-15T04:14:38;5.07;;;1.20;;
66298;SDS011;53098;47.658;8.578;2023-04-15T04:17:04;4.43;;;1.53;;
66298;SDS011;53098;47.658;8.578;2023-04-15T04:19:29;4.80;;;1.40;;
66298;SDS011;53098;47.658;8.578;2023-04-15T04:21:54;3.83;;;1.30;;
66298;SDS011;53098;47.658;8.578;2023-04-15T04:24:19;3.73;;;1.43;;
66298;SDS011;53098;47.658;8.578;2023-04-15T04:26:45;5.93;;;1.85;;
66298;SDS011;53098;47.658;8.578;2023-04-15T04:29:10;4.32;;;1.33;;
66298;SDS011;53098;47.658;8.578;2023-04-15T04:31:36;3.53;;;1.47;;
66298;SDS011;53098;47.658;8.578;2023-04-15T04:34:01;5.77;;;1.80;;
66298;SDS011;53098;47.658;8.578;2023-04-15T04:36:26;6.30;;;2.03;;
66298;SDS011;53098;47.658;8.578;2023-04-15T04:38:52;9.73;;;2.23;;
66298;SDS011;53098;47.658;8.578;2023-04-15T04:41:17;7.23;;;2.57;;
66298;SDS011;53098;47.658;8.578;2023-04-15T04:43:42;7.60;;;3.00;;
66298;SDS011;53098;47.658;8.578;2023-04-15T04:46:07;7.03;;;2.70;;
66298;SDS011;53098;47.658;8.578;2023-04-15T04:48:33;12.27;;;3.73;;
66298;SDS011;53098;47.658;8.578;2023-04-15T04:50:58;10.23;;;3.05;;
66298;SDS011;53098;47.658;8.578;2023-04-15T04:53:23;6.73;;;2.60;;
66298;SDS011;53098;47.658;8.578;2023-04-15T04:55:48;15.27;;;5.57;;
66298;SDS011;53098;47.658;8.578;2023-04-15T04:58:14;33.42;;;15.52;;
66298;SDS011;53098;47.658;8.578;2023-04-15T05:00:39;29.45;;;14.52;;
66298;SDS011;53098;47.658;8.578;2023-04-15T05:03:05;25.80;;;13.45;;
66298;SDS011;53098;47.658;8.578;2023-04-15T05:05:30;11.17;;;4.47;;
66298;SDS011;53098;47.658;8.578;2023-04-15T05:07:55;9.77;;;3.00;;
66298;SDS011;53098;47.658;8.578;2023-04-15T05:10:20;6.97;;;2.83;;
66298;SDS011;53098;47.658;8.578;2023-04-15T05:12:46;11.00;;;2.72;;
66298;SDS011;53098;47.658;8.578;2023-04-15T05:15:11;8.03;;;2.50;;
66298;SDS011;53098;47.658;8.578;2023-04-15T05:17:36;7.27;;;2.80;;
66298;SDS011;53098;47.658;8.578;2023-04-15T05:20:02;7.13;;;2.27;;
66298;SDS011;53098;47.658;8.578;2023-04-15T05:22:27;5.82;;;2.20;;
66298;SDS011;53098;47.658;8.578;2023-04-15T05:24:53;6.05;;;2.00;;
66298;SDS011;53098;47.658;8.578;2023-04-15T05:27:18;7.30;;;2.00;;
66298;SDS011;53098;47.658;8.578;2023-04-15T05:29:43;6.40;;;2.00;;
66298;SDS011;53098;47.658;8.578;2023-04-15T05:32:09;4.18;;;1.70;;
66298;SDS011;53098;47.658;8.578;2023-04-15T05:34:34;5.65;;;2.05;;
66298;SDS011;53098;47.658;8.578;2023-04-15T05:36:59;11.50;;;2.60;;
66298;SDS011;53098;47.658;8.578;2023-04-15T05:39:25;7.47;;;2.40;;
66298;SDS011;53098;47.658;8.578;2023-04-15T05:41:50;9.37;;;2.17;;
66298;SDS011;53098;47.658;8.578;2023-04-15T05:44:15;6.10;;;1.70;;
66298;SDS011;53098;47.658;8.578;2023-04-15T05:46:40;8.13;;;1.90;;
66298;SDS011;53098;47.658;8.578;2023-04-15T05:49:06;7.38;;;1.67;;
66298;SDS011;53098;47.658;8.578;2023-04-15T05:51:31;5.77;;;2.00;;
66298;SDS011;53098;47.658;8.578;2023-04-15T05:53:56;6.00;;;1.90;;
66298;SDS011;53098;47.658;8.578;2023-04-15T05:56:22;8.23;;;2.20;;
66298;SDS011;53098;47.658;8.578;2023-04-15T05:58:47;8.97;;;2.20;;
66298;SDS011;53098;47.658;8.578;2023-04-15T06:01:12;11.43;;;2.50;;
66298;SDS011;53098;47.658;8.578;2023-04-15T06:03:38;9.80;;;2.40;;
66298;SDS011;53098;47.658;8.578;2023-04-15T06:06:03;8.80;;;3.63;;
66298;SDS011;53098;47.658;8.578;2023-04-15T06:08:28;8.70;;;2.60;;
66298;SDS011;53098;47.658;8.578;2023-04-15T06:10:54;7.80;;;2.75;;
66298;SDS011;53098;47.658;8.578;2023-04-15T06:13:19;9.47;;;3.33;;
66298;SDS011;53098;47.658;8.578;2023-04-15T06:15:44;7.97;;;2.97;;
66298;SDS011;53098;47.658;8.578;2023-04-15T06:18:10;8.87;;;3.03;;
66298;SDS011;53098;47.658;8.578;2023-04-15T06:20:35;9.07;;;3.77;;
66298;SDS011;53098;47.658;8.578;2023-04-15T06:23:00;8.98;;;3.35;;
66298;SDS011;53098;47.658;8.578;2023-04-15T06:25:25;11.17;;;3.80;;
66298;SDS011;53098;47.658;8.578;2023-04-15T06:27:51;10.43;;;4.03;;
66298;SDS011;53098;47.658;8.578;2023-04-15T06:30:16;10.13;;;3.73;;
66298;SDS011;53098;47.658;8.578;2023-04-15T06:32:41;12.02;;;3.78;;
66298;SDS011;53098;47.658;8.578;2023-04-15T06:35:07;10.63;;;3.47;;
66298;SDS011;53098;47.658;8.578;2023-04-15T06:37:32;10.55;;;3.45;;
66298;SDS011;53098;47.658;8.578;2023-04-15T06:39:58;9.82;;;3.88;;
66298;SDS011;53098;47.658;8.578;2023-04-15T06:42:23;7.37;;;2.90;;
66298;SDS011;53098;47.658;8.578;2023-04-15T06:44:48;10.73;;;3.27;;
66298;SDS011;53098;47.658;8.578;2023-04-15T06:47:14;7.00;;;2.90;;
66298;SDS011;53098;47.658;8.578;2023-04-15T06:49:39;7.75;;;3.10;;
66298;SDS011;53098;47.658;8.578;2023-04-15T06:52:05;8.98;;;3.25;;
66298;SDS011;53098;47.658;8.578;2023-04-15T06:54:30;9.53;;;3.10;;
66298;SDS011;53098;47.658;8.578;2023-04-15T06:56:55;8.67;;;2.83;;
66298;SDS011;53098;47.658;8.578;2023-04-15T06:59:20;8.17;;;2.80;;
66298;SDS011;53098;47.658;8.578;2023-04-15T07:01:46;8.70;;;3.43;;
66298;SDS011;53098;47.658;8.578;2023-04-15T07:04:11;7.60;;;2.80;;
66298;SDS011;53098;47.658;8.578;2023-04-15T07:06:36;9.30;;;2.93;;
66298;SDS011;53098;47.658;8.578;2023-04-15T07:09:02;6.78;;;3.08;;
66298;SDS011;53098;47.658;8.578;2023-04-15T07:11:27;8.80;;;2.72;;
66298;SDS011;53098;47.658;8.578;2023-04-15T07:13:53;8.70;;;3.03;;
66298;SDS011;53098;47.658;8.578;2023-04-15T07:16:18;9.37;;;3.03;;
66298;SDS011;53098;47.658;8.578;2023-04-15T07:18:43;8.63;;;2.43;;
66298;SDS011;53098;47.658;8.578;2023-04-15T07:21:08;6.77;;;2.40;;
66298;SDS011;53098;47.658;8.578;2023-04-15T07:23:34;8.93;;;2.20;;
66298;SDS011;53098;47.658;8.578;2023-04-15T07:25:59;8.93;;;2.40;;
66298;SDS011;53098;47.658;8.578;2023-04-15T07:28:24;6.30;;;2.03;;
66298;SDS011;53098;47.658;8.578;2023-04-15T07:30:50;6.55;;;2.13;;
66298;SDS011;53098;47.658;8.578;2023-04-15T07:33:15;8.43;;;2.42;;
66298;SDS011;53098;47.658;8.578;2023-04-15T07:35:41;7.18;;;2.00;;
66298;SDS011;53098;47.658;8.578;2023-04-15T07:38:06;7.50;;;2.03;;
66298;SDS011;53098;47.658;8.578;2023-04-15T07:40:31;6.10;;;2.10;;
66298;SDS011;53098;47.658;8.578;2023-04-15T07:42:57;7.90;;;2.30;;
66298;SDS011;53098;47.658;8.578;2023-04-15T07:45:22;8.43;;;2.20;;
66298;SDS011;53098;47.658;8.578;2023-04-15T07:47:48;8.38;;;2.22;;
66298;SDS011;53098;47.658;8.578;2023-04-15T07:50:13;10.00;;;2.60;;
66298;SDS011;53098;47.658;8.578;2023-04-15T07:52:38;6.00;;;1.85;;
66298;SDS011;53098;47.658;8.578;2023-04-15T07:55:05;6.60;;;2.03;;
66298;SDS011;53098;47.658;8.578;2023-04-15T07:57:30;9.65;;;1.80;;
66298;SDS011;53098;47.658;8.578;2023-04-15T07:59:55;5.67;;;1.63;;
66298;SDS011;53098;47.658;8.578;2023-04-15T08:02:21;7.50;;;1.80;;
66298;SDS011;53098;47.658;8.578;2023-04-15T08:04:46;10.23;;;2.40;;
66298;SDS011;53098;47.658;8.578;2023-04-15T08:07:11;8.23;;;1.80;;
66298;SDS011;53098;47.658;8.578;2023-04-15T08:09:37;6.47;;;1.92;;
66298;SDS011;53098;47.658;8.578;2023-04-15T08:12:02;5.97;;;2.83;;
66298;SDS011;53098;47.658;8.578;2023-04-15T08:14:27;7.07;;;2.95;;
66298;SDS011;53098;47.658;8.578;2023-04-15T08:16:53;7.18;;;1.95;;
66298;SDS011;53098;47.658;8.578;2023-04-15T08:19:18;10.33;;;1.90;;
66298;SDS011;53098;47.658;8.578;2023-04-15T08:21:43;7.17;;;1.87;;
66298;SDS011;53098;47.658;8.578;2023-04-15T08:24:09;7.53;;;2.43;;
66298;SDS011;53098;47.658;8.578;2023-04-15T08:26:34;7.17;;;2.20;;
66298;SDS011;53098;47.658;8.578;2023-04-15T08:28:59;6.80;;;2.00;;
66298;SDS011;53098;47.658;8.578;2023-04-15T08:31:25;6.40;;;2.13;;
66298;SDS011;53098;47.658;8.578;2023-04-15T08:33:50;4.75;;;2.05;;
66298;SDS011;53098;47.658;8.578;2023-04-15T08:36:15;5.67;;;1.80;;
66298;SDS011;53098;47.658;8.578;2023-04-15T08:38:41;8.43;;;2.40;;
66298;SDS011;53098;47.658;8.578;2023-04-15T08:41:07;6.63;;;1.80;;
66298;SDS011;53098;47.658;8.578;2023-04-15T08:43:37;6.40;;;2.25;;
66298;SDS011;53098;47.658;8.578;2023-04-15T08:46:07;7.35;;;2.03;;
66298;SDS011;53098;47.658;8.578;2023-04-15T08:48:33;7.13;;;2.65;;
66298;SDS011;53098;47.658;8.578;2023-04-15T08:51:02;6.50;;;1.90;;
66298;SDS011;53098;47.658;8.578;2023-04-15T08:53:28;6.65;;;1.90;;
66298;SDS011;53098;47.658;8.578;2023-04-15T08:55:54;8.02;;;2.13;;
66298;SDS011;53098;47.658;8.578;2023-04-15T08:58:20;5.65;;;1.63;;
66298;SDS011;53098;47.658;8.578;2023-04-15T09:00:45;6.40;;;1.85;;
66298;SDS011;53098;47.658;8.578;2023-04-15T09:03:11;4.87;;;2.10;;
66298;SDS011;53098;47.658;8.578;2023-04-15T09:05:45;7.50;;;3.05;;
66298;SDS011;53098;47.658;8.578;2023-04-15T09:08:10;7.80;;;2.00;;
66298;SDS011;53098;47.658;8.578;2023-04-15T09:10:36;7.67;;;2.07;;
66298;SDS011;53098;47.658;8.578;2023-04-15T09:13:01;8.48;;;2.10;;
66298;SDS011;53098;47.658;8.578;2023-04-15T09:15:27;7.27;;;2.17;;
66298;SDS011;53098;47.658;8.578;2023-04-15T09:17:52;8.30;;;2.28;;
66298;SDS011;53098;47.658;8.578;2023-04-15T09:20:18;7.33;;;1.90;;
66298;SDS011;53098;47.658;8.578;2023-04-15T09:22:44;7.82;;;2.03;;
66298;SDS011;53098;47.658;8.578;2023-04-15T09:27:47;6.95;;;2.33;;
66298;SDS011;53098;47.658;8.578;2023-04-15T09:30:13;6.07;;;1.95;;
66298;SDS011;53098;47.658;8.578;2023-04-15T09:32:47;7.17;;;2.10;;
66298;SDS011;53098;47.658;8.578;2023-04-15T09:35:13;9.32;;;2.35;;
66298;SDS011;53098;47.658;8.578;2023-04-15T09:37:38;7.00;;;2.60;;
66298;SDS011;53098;47.658;8.578;2023-04-15T09:40:03;8.17;;;2.20;;
66298;SDS011;53098;47.658;8.578;2023-04-15T09:42:29;8.10;;;2.40;;
66298;SDS011;53098;47.658;8.578;2023-04-15T09:44:54;8.65;;;2.38;;
66298;SDS011;53098;47.658;8.578;2023-04-15T09:47:29;5.75;;;1.88;;
66298;SDS011;53098;47.658;8.578;2023-04-15T09:49:55;6.57;;;2.17;;
66298;SDS011;53098;47.658;8.578;2023-04-15T09:52:21;7.93;;;2.35;;
66298;SDS011;53098;47.658;8.578;2023-04-15T09:54:46;5.80;;;1.90;;
66298;SDS011;53098;47.658;8.578;2023-04-15T09:57:12;6.97;;;1.80;;
66298;SDS011;53098;47.658;8.578;2023-04-15T09:59:37;8.13;;;2.00;;
66298;SDS011;53098;47.658;8.578;2023-04-15T10:02:05;7.57;;;2.73;;
66298;SDS011;53098;47.658;8.578;2023-04-15T10:04:31;6.88;;;2.28;;
66298;SDS011;53098;47.658;8.578;2023-04-15T10:06:57;6.20;;;1.80;;
66298;SDS011;53098;47.658;8.578;2023-04-15T10:09:23;6.93;;;2.10;;
66298;SDS011;53098;47.658;8.578;2023-04-15T10:11:48;7.53;;;2.17;;
66298;SDS011;53098;47.658;8.578;2023-04-15T10:14:14;8.43;;;1.90;;
66298;SDS011;53098;47.658;8.578;2023-04-15T10:16:39;5.05;;;1.35;;
66298;SDS011;53098;47.658;8.578;2023-04-15T10:19:05;4.90;;;1.60;;
66298;SDS011;53098;47.658;8.578;2023-04-15T10:21:31;6.85;;;1.80;;
66298;SDS011;53098;47.658;8.578;2023-04-15T10:23:57;6.20;;;1.38;;
66298;SDS011;53098;47.658;8.578;2023-04-15T10:26:22;5.03;;;1.60;;
66298;SDS011;53098;47.658;8.578;2023-04-15T10:28:48;7.70;;;2.22;;
66298;SDS011;53098;47.658;8.578;2023-04-15T10:31:14;5.32;;;1.70;;
66298;SDS011;53098;47.658;8.578;2023-04-15T10:33:40;4.45;;;1.33;;
66298;SDS011;53098;47.658;8.578;2023-04-15T10:36:06;4.50;;;1.30;;
66298;SDS011;53098;47.658;8.578;2023-04-15T10:41:33;5.45;;;1.40;;
66298;SDS011;53098;47.658;8.578;2023-04-15T10:46:26;4.50;;;1.60;;
66298;SDS011;53098;47.658;8.578;2023-04-15T10:48:58;4.10;;;1.83;;
66298;SDS011;53098;47.658;8.578;2023-04-15T10:51:30;6.18;;;1.40;;
66298;SDS011;53098;47.658;8.578;2023-04-15T10:53:56;5.55;;;1.52;;
66298;SDS011;53098;47.658;8.578;2023-04-15T10:56:22;4.28;;;1.10;;
66298;SDS011;53098;47.658;8.578;2023-04-15T10:58:47;5.13;;;1.40;;
66298;SDS011;53098;47.658;8.578;2023-04-15T11:01:12;5.83;;;1.40;;
66298;SDS011;53098;47.658;8.578;2023-04-15T11:03:38;4.23;;;1.20;;
66298;SDS011;53098;47.658;8.578;2023-04-15T11:06:04;4.72;;;1.40;;
66298;SDS011;53098;47.658;8.578;2023-04-15T11:11:14;6.60;;;1.83;;
66298;SDS011;53098;47.658;8.578;2023-04-15T11:13:46;7.57;;;1.60;;
66298;SDS011;53098;47.658;8.578;2023-04-15T11:16:12;3.75;;;1.17;;
66298;SDS011;53098;47.658;8.578;2023-04-15T11:18:37;2.72;;;1.13;;
66298;SDS011;53098;47.658;8.578;2023-04-15T11:21:03;3.77;;;1.10;;
66298;SDS011;53098;47.658;8.578;2023-04-15T11:25:55;4.97;;;1.90;;
66298;SDS011;53098;47.658;8.578;2023-04-15T11:28:23;4.95;;;1.52;;
66298;SDS011;53098;47.658;8.578;2023-04-15T11:30:53;6.75;;;1.38;;
66298;SDS011;53098;47.658;8.578;2023-04-15T11:33:19;5.88;;;1.58;;
66298;SDS011;53098;47.658;8.578;2023-04-15T11:35:44;8.00;;;1.65;;
66298;SDS011;53098;47.658;8.578;2023-04-15T11:38:11;5.93;;;1.65;;
66298;SDS011;53098;47.658;8.578;2023-04-15T11:40:36;5.90;;;1.50;;
66298;SDS011;53098;47.658;8.578;2023-04-15T11:43:03;6.78;;;1.75;;
66298;SDS011;53098;47.658;8.578;2023-04-15T11:45:28;6.13;;;1.40;;
66298;SDS011;53098;47.658;8.578;2023-04-15T11:47:54;4.70;;;1.50;;
66298;SDS011;53098;47.658;8.578;2023-04-15T11:50:20;5.27;;;2.10;;
66298;SDS011;53098;47.658;8.578;2023-04-15T11:52:52;6.53;;;1.60;;
66298;SDS011;53098;47.658;8.578;2023-04-15T11:55:17;4.05;;;1.40;;
66298;SDS011;53098;47.658;8.578;2023-04-15T11:57:43;4.07;;;1.20;;
66298;SDS011;53098;47.658;8.578;2023-04-15T12:00:08;3.80;;;1.13;;
66298;SDS011;53098;47.658;8.578;2023-04-15T12:02:35;6.95;;;2.00;;
66298;SDS011;53098;47.658;8.578;2023-04-15T12:05:04;5.13;;;1.27;;
66298;SDS011;53098;47.658;8.578;2023-04-15T12:07:29;5.55;;;1.48;;
66298;SDS011;53098;47.658;8.578;2023-04-15T12:09:55;7.32;;;1.58;;
66298;SDS011;53098;47.658;8.578;2023-04-15T12:12:21;4.68;;;1.35;;
66298;SDS011;53098;47.658;8.578;2023-04-15T12:14:46;6.33;;;1.40;;
66298;SDS011;53098;47.658;8.578;2023-04-15T12:17:11;5.60;;;1.35;;
66298;SDS011;53098;47.658;8.578;2023-04-15T12:19:37;5.97;;;1.63;;
66298;SDS011;53098;47.658;8.578;2023-04-15T12:22:04;8.77;;;1.45;;
66298;SDS011;53098;47.658;8.578;2023-04-15T12:24:30;7.80;;;1.58;;
66298;SDS011;53098;47.658;8.578;2023-04-15T12:26:56;6.28;;;1.55;;
66298;SDS011;53098;47.658;8.578;2023-04-15T12:29:26;5.60;;;1.52;;
66298;SDS011;53098;47.658;8.578;2023-04-15T12:31:52;3.53;;;1.13;;
66298;SDS011;53098;47.658;8.578;2023-04-15T12:37:18;6.70;;;1.40;;
66298;SDS011;53098;47.658;8.578;2023-04-15T12:39:45;4.13;;;1.30;;
66298;SDS011;53098;47.658;8.578;2023-04-15T12:42:11;5.88;;;1.75;;
66298;SDS011;53098;47.658;8.578;2023-04-15T12:44:36;5.00;;;1.38;;
66298;SDS011;53098;47.658;8.578;2023-04-15T12:47:02;5.28;;;1.15;;
66298;SDS011;53098;47.658;8.578;2023-04-15T12:49:27;4.32;;;1.25;;
66298;SDS011;53098;47.658;8.578;2023-04-15T12:51:54;5.47;;;1.20;;
66298;SDS011;53098;47.658;8.578;2023-04-15T12:54:19;4.93;;;1.60;;
66298;SDS011;53098;47.658;8.578;2023-04-15T12:56:45;5.60;;;1.50;;
66298;SDS011;53098;47.658;8.578;2023-04-15T12:59:11;5.13;;;1.45;;
66298;SDS011;53098;47.658;8.578;2023-04-15T13:01:39;6.07;;;1.83;;
66298;SDS011;53098;47.658;8.578;2023-04-15T13:04:05;6.70;;;2.00;;
66298;SDS011;53098;47.658;8.578;2023-04-15T13:06:30;6.55;;;1.98;;
66298;SDS011;53098;47.658;8.578;2023-04-15T13:08:56;4.80;;;1.60;;
66298;SDS011;53098;47.658;8.578;2023-04-15T13:11:21;8.23;;;1.83;;
66298;SDS011;53098;47.658;8.578;2023-04-15T13:13:47;7.13;;;2.08;;
66298;SDS011;53098;47.658;8.578;2023-04-15T13:16:12;5.82;;;1.33;;
66298;SDS011;53098;47.658;8.578;2023-04-15T13:18:38;6.35;;;1.90;;
66298;SDS011;53098;47.658;8.578;2023-04-15T13:21:03;5.38;;;1.65;;
66298;SDS011;53098;47.658;8.578;2023-04-15T13:23:29;5.70;;;1.67;;
66298;SDS011;53098;47.658;8.578;2023-04-15T13:25:54;3.83;;;1.30;;
66298;SDS011;53098;47.658;8.578;2023-04-15T13:28:20;5.13;;;1.77;;
66298;SDS011;53098;47.658;8.578;2023-04-15T13:30:45;5.40;;;1.73;;
66298;SDS011;53098;47.658;8.578;2023-04-15T13:33:10;6.23;;;1.70;;
66298;SDS011;53098;47.658;8.578;2023-04-15T13:35:36;8.77;;;1.80;;
66298;SDS011;53098;47.658;8.578;2023-04-15T13:38:01;7.13;;;1.90;;
66298;SDS011;53098;47.658;8.578;2023-04-15T13:40:26;5.85;;;1.80;;
66298;SDS011;53098;47.658;8.578;2023-04-15T13:42:52;8.93;;;2.33;;
66298;SDS011;53098;47.658;8.578;2023-04-15T13:45:17;6.00;;;1.77;;
66298;SDS011;53098;47.658;8.578;2023-04-15T13:47:42;6.63;;;2.38;;
66298;SDS011;53098;47.658;8.578;2023-04-15T13:50:08;8.90;;;1.83;;
66298;SDS011;53098;47.658;8.578;2023-04-15T13:52:33;13.07;;;3.78;;
66298;SDS011;53098;47.658;8.578;2023-04-15T13:54:58;6.33;;;1.97;;
66298;SDS011;53098;47.658;8.578;2023-04-15T13:57:24;9.65;;;3.00;;
66298;SDS011;53098;47.658;8.578;2023-04-15T13:59:49;5.77;;;2.10;;
66298;SDS011;53098;47.658;8.578;2023-04-15T14:02:15;10.27;;;3.25;;
66298;SDS011;53098;47.658;8.578;2023-04-15T14:04:40;8.48;;;2.25;;
66298;SDS011;53098;47.658;8.578;2023-04-15T14:07:06;8.77;;;1.92;;
66298;SDS011;53098;47.658;8.578;2023-04-15T14:09:31;5.93;;;1.55;;
66298;SDS011;53098;47.658;8.578;2023-04-15T14:11:56;5.50;;;1.50;;
66298;SDS011;53098;47.658;8.578;2023-04-15T14:14:22;8.23;;;1.50;;
66298;SDS011;53098;47.658;8.578;2023-04-15T14:16:47;5.07;;;1.40;;
66298;SDS011;53098;47.658;8.578;2023-04-15T14:19:13;5.35;;;1.58;;
66298;SDS011;53098;47.658;8.578;2023-04-15T14:21:38;5.13;;;1.52;;
66298;SDS011;53098;47.658;8.578;2023-04-15T14:24:03;6.00;;;1.67;;
66298;SDS011;53098;47.658;8.578;2023-04-15T14:26:29;3.20;;;1.30;;
66298;SDS011;53098;47.658;8.578;2023-04-15T14:28:54;6.40;;;1.60;;
66298;SDS011;53098;47.658;8.578;2023-04-15T14:31:19;4.00;;;1.33;;
66298;SDS011;53098;47.658;8.578;2023-04-15T14:33:45;5.90;;;1.93;;
66298;SDS011;53098;47.658;8.578;2023-04-15T14:36:10;6.77;;;2.30;;
66298;SDS011;53098;47.658;8.578;2023-04-15T14:38:35;6.60;;;2.10;;
66298;SDS011;53098;47.658;8.578;2023-04-15T14:41:01;6.80;;;1.80;;
66298;SDS011;53098;47.658;8.578;2023-04-15T14:43:26;6.43;;;1.90;;
66298;SDS011;53098;47.658;8.578;2023-04-15T14:45:51;3.50;;;1.53;;
66298;SDS011;53098;47.658;8.578;2023-04-15T14:48:17;4.25;;;2.00;;
66298;SDS011;53098;47.658;8.578;2023-04-15T14:50:42;7.03;;;1.70;;
66298;SDS011;53098;47.658;8.578;2023-04-15T14:53:07;4.27;;;1.47;;